KJYG

St James Municipal Airport

St James, Minnesota, USA
METAR KJYG 230835Z AUTO 17008KT VCTS 18/17 A3007 RMK AO2 PM LTG DSNT S AND SW
Observed Flight Rules
May-23 @ 08:35 UTC (6 minutes ago)
Wind Conditions
170° at 8 knots
  • Area Thunderstorm
Temperatures Readings
Current 18°C / 64°F
Dewpoint 17°C / 63°F
Humidity 94%
Altimeter 30.07" Hg
Pressure 1018 hPa
Elevation 325
METAR KJYG 230835Z AUTO 17008KT VCTS 18/17 A3007 RMK AO2 PM LTG DSNT S AND SW
Observed Flight Rules
May-23 @ 08:35 UTC
(6 minutes ago)
Wind
170° at 8 knots
Conditions
  • Area Thunderstorm
Temperature Dewpoint
18°C / 64°F 17°C / 63°F
Humidity Altimeter Pressure
94% 30.07" Hg 1018 hPa